sensor_id;sensor_type;location;lat;lon;timestamp;pressure;altitude;pressure_sealevel;temperature;humidity
31761;BME280;18335;51.486;7.562;2023-05-02T00:00:41;100438.34;;;11.65;100.00
31761;BME280;18335;51.486;7.562;2023-05-02T00:03:10;100432.56;;;11.68;100.00
31761;BME280;18335;51.486;7.562;2023-05-02T00:05:37;100433.41;;;11.61;100.00
31761;BME280;18335;51.486;7.562;2023-05-02T00:08:05;100436.81;;;11.55;100.00
31761;BME280;18335;51.486;7.562;2023-05-02T00:10:33;100428.56;;;11.47;100.00
31761;BME280;18335;51.486;7.562;2023-05-02T00:13:00;100435.41;;;11.51;100.00
31761;BME280;18335;51.486;7.562;2023-05-02T00:15:26;100435.97;;;11.62;100.00
31761;BME280;18335;51.486;7.562;2023-05-02T00:17:54;100437.13;;;11.44;100.00
31761;BME280;18335;51.486;7.562;2023-05-02T00:20:21;100428.41;;;11.40;100.00
31761;BME280;18335;51.486;7.562;2023-05-02T00:22:47;100432.34;;;11.46;100.00
31761;BME280;18335;51.486;7.562;2023-05-02T00:25:14;100440.19;;;11.41;100.00
31761;BME280;18335;51.486;7.562;2023-05-02T00:27:43;100451.47;;;11.38;100.00
31761;BME280;18335;51.486;7.562;2023-05-02T00:30:11;100451.59;;;11.28;100.00
31761;BME280;18335;51.486;7.562;2023-05-02T00:32:38;100458.50;;;11.15;100.00
31761;BME280;18335;51.486;7.562;2023-05-02T00:35:06;100459.22;;;11.17;100.00
31761;BME280;18335;51.486;7.562;2023-05-02T00:37:33;100464.91;;;10.97;100.00
31761;BME280;18335;51.486;7.562;2023-05-02T00:40:00;100463.63;;;11.09;100.00
31761;BME280;18335;51.486;7.562;2023-05-02T00:42:28;100471.06;;;10.99;100.00
31761;BME280;18335;51.486;7.562;2023-05-02T00:44:57;100476.25;;;11.10;100.00
31761;BME280;18335;51.486;7.562;2023-05-02T00:47:24;100475.31;;;11.28;100.00
31761;BME280;18335;51.486;7.562;2023-05-02T00:49:51;100467.31;;;11.34;100.00
31761;BME280;18335;51.486;7.562;2023-05-02T00:52:18;100466.66;;;11.40;100.00
31761;BME280;18335;51.486;7.562;2023-05-02T00:54:46;100470.81;;;11.52;100.00
31761;BME280;18335;51.486;7.562;2023-05-02T00:57:12;100475.94;;;11.55;100.00
31761;BME280;18335;51.486;7.562;2023-05-02T00:59:39;100475.00;;;11.39;100.00
31761;BME280;18335;51.486;7.562;2023-05-02T01:02:18;100474.66;;;11.42;100.00
31761;BME280;18335;51.486;7.562;2023-05-02T01:04:55;100482.88;;;11.50;100.00
31761;BME280;18335;51.486;7.562;2023-05-02T01:07:44;100485.66;;;11.58;100.00
31761;BME280;18335;51.486;7.562;2023-05-02T01:10:18;100485.28;;;11.53;100.00
31761;BME280;18335;51.486;7.562;2023-05-02T01:12:53;100482.56;;;11.53;100.00
31761;BME280;18335;51.486;7.562;2023-05-02T01:15:24;100478.91;;;11.70;100.00
31761;BME280;18335;51.486;7.562;2023-05-02T01:17:53;100478.72;;;11.72;100.00
31761;BME280;18335;51.486;7.562;2023-05-02T01:20:23;100481.91;;;11.59;100.00
31761;BME280;18335;51.486;7.562;2023-05-02T01:22:53;100489.09;;;11.60;100.00
31761;BME280;18335;51.486;7.562;2023-05-02T01:25:28;100486.34;;;11.60;100.00
31761;BME280;18335;51.486;7.562;2023-05-02T01:28:13;100494.00;;;11.56;100.00
31761;BME280;18335;51.486;7.562;2023-05-02T01:30:45;100487.03;;;11.62;100.00
31761;BME280;18335;51.486;7.562;2023-05-02T01:33:16;100498.13;;;11.60;100.00
31761;BME280;18335;51.486;7.562;2023-05-02T01:35:45;100496.47;;;11.68;100.00
31761;BME280;18335;51.486;7.562;2023-05-02T01:38:13;100494.97;;;11.73;100.00
31761;BME280;18335;51.486;7.562;2023-05-02T01:40:43;100503.75;;;11.59;100.00
31761;BME280;18335;51.486;7.562;2023-05-02T01:43:11;100507.41;;;11.68;100.00
31761;BME280;18335;51.486;7.562;2023-05-02T01:45:42;100504.50;;;11.69;100.00
31761;BME280;18335;51.486;7.562;2023-05-02T01:48:11;100503.88;;;11.41;100.00
31761;BME280;18335;51.486;7.562;2023-05-02T01:50:40;100507.75;;;11.31;100.00
31761;BME280;18335;51.486;7.562;2023-05-02T01:53:10;100511.59;;;11.54;100.00
31761;BME280;18335;51.486;7.562;2023-05-02T01:55:40;100512.78;;;11.51;100.00
31761;BME280;18335;51.486;7.562;2023-05-02T01:58:08;100515.69;;;11.50;100.00
31761;BME280;18335;51.486;7.562;2023-05-02T02:00:37;100522.38;;;11.55;100.00
31761;BME280;18335;51.486;7.562;2023-05-02T02:03:06;100527.69;;;11.65;100.00
31761;BME280;18335;51.486;7.562;2023-05-02T02:05:36;100527.34;;;11.60;100.00
31761;BME280;18335;51.486;7.562;2023-05-02T02:08:05;100530.44;;;11.65;100.00
31761;BME280;18335;51.486;7.562;2023-05-02T02:10:35;100528.03;;;11.62;100.00
31761;BME280;18335;51.486;7.562;2023-05-02T02:13:08;100537.59;;;11.58;100.00
31761;BME280;18335;51.486;7.562;2023-05-02T02:15:40;100536.72;;;11.49;100.00
31761;BME280;18335;51.486;7.562;2023-05-02T02:18:11;100539.25;;;11.51;100.00
31761;BME280;18335;51.486;7.562;2023-05-02T02:20:42;100547.47;;;11.51;100.00
31761;BME280;18335;51.486;7.562;2023-05-02T02:23:11;100546.97;;;11.55;100.00
31761;BME280;18335;51.486;7.562;2023-05-02T02:25:39;100545.38;;;11.45;100.00
31761;BME280;18335;51.486;7.562;2023-05-02T02:28:06;100563.63;;;11.36;100.00
31761;BME280;18335;51.486;7.562;2023-05-02T02:30:32;100554.84;;;11.25;100.00
31761;BME280;18335;51.486;7.562;2023-05-02T02:32:59;100551.28;;;11.32;100.00
31761;BME280;18335;51.486;7.562;2023-05-02T02:35:30;100558.47;;;11.33;100.00
31761;BME280;18335;51.486;7.562;2023-05-02T02:38:10;100555.97;;;11.40;100.00
31761;BME280;18335;51.486;7.562;2023-05-02T02:40:44;100556.06;;;11.30;100.00
31761;BME280;18335;51.486;7.562;2023-05-02T02:43:19;100565.28;;;11.29;100.00
31761;BME280;18335;51.486;7.562;2023-05-02T02:45:55;100566.63;;;11.25;100.00
31761;BME280;18335;51.486;7.562;2023-05-02T02:48:31;100561.16;;;10.99;100.00
31761;BME280;18335;51.486;7.562;2023-05-02T02:51:06;100569.47;;;11.16;100.00
31761;BME280;18335;51.486;7.562;2023-05-02T02:53:54;100568.03;;;11.03;100.00
31761;BME280;18335;51.486;7.562;2023-05-02T02:56:26;100570.13;;;11.09;100.00
31761;BME280;18335;51.486;7.562;2023-05-02T02:58:56;100573.22;;;11.15;100.00
31761;BME280;18335;51.486;7.562;2023-05-02T03:01:26;100571.84;;;11.10;100.00
31761;BME280;18335;51.486;7.562;2023-05-02T03:03:54;100576.03;;;11.23;100.00
31761;BME280;18335;51.486;7.562;2023-05-02T03:06:22;100584.47;;;11.11;100.00
31761;BME280;18335;51.486;7.562;2023-05-02T03:08:52;100572.97;;;11.26;100.00
31761;BME280;18335;51.486;7.562;2023-05-02T03:11:26;100588.50;;;11.25;100.00
31761;BME280;18335;51.486;7.562;2023-05-02T03:13:52;100589.22;;;11.09;100.00
31761;BME280;18335;51.486;7.562;2023-05-02T03:16:31;100590.19;;;11.26;100.00
31761;BME280;18335;51.486;7.562;2023-05-02T03:18:59;100594.50;;;11.29;100.00
31761;BME280;18335;51.486;7.562;2023-05-02T03:21:26;100589.72;;;11.31;100.00
31761;BME280;18335;51.486;7.562;2023-05-02T03:23:59;100595.59;;;10.92;100.00
31761;BME280;18335;51.486;7.562;2023-05-02T03:26:26;100587.97;;;10.96;100.00
31761;BME280;18335;51.486;7.562;2023-05-02T03:28:54;100599.34;;;10.91;100.00
31761;BME280;18335;51.486;7.562;2023-05-02T03:31:27;100592.25;;;10.98;100.00
31761;BME280;18335;51.486;7.562;2023-05-02T03:33:54;100601.88;;;11.10;100.00
31761;BME280;18335;51.486;7.562;2023-05-02T03:36:21;100602.19;;;11.07;100.00
31761;BME280;18335;51.486;7.562;2023-05-02T03:38:51;100596.47;;;10.93;100.00
31761;BME280;18335;51.486;7.562;2023-05-02T03:41:20;100604.75;;;10.83;100.00
31761;BME280;18335;51.486;7.562;2023-05-02T03:43:55;100603.16;;;10.98;100.00
31761;BME280;18335;51.486;7.562;2023-05-02T03:46:24;100608.25;;;10.76;100.00
31761;BME280;18335;51.486;7.562;2023-05-02T03:48:51;100614.16;;;10.89;100.00
31761;BME280;18335;51.486;7.562;2023-05-02T03:51:17;100619.69;;;10.97;100.00
31761;BME280;18335;51.486;7.562;2023-05-02T03:53:49;100614.13;;;10.63;100.00
31761;BME280;18335;51.486;7.562;2023-05-02T03:56:16;100613.03;;;10.74;100.00
31761;BME280;18335;51.486;7.562;2023-05-02T03:58:52;100613.72;;;10.76;100.00
31761;BME280;18335;51.486;7.562;2023-05-02T04:01:23;100622.19;;;10.90;100.00
31761;BME280;18335;51.486;7.562;2023-05-02T04:03:51;100617.81;;;10.97;100.00
31761;BME280;18335;51.486;7.562;2023-05-02T04:06:21;100621.66;;;10.87;100.00
31761;BME280;18335;51.486;7.562;2023-05-02T04:08:55;100630.78;;;10.95;100.00
31761;BME280;18335;51.486;7.562;2023-05-02T04:11:23;100623.84;;;10.83;100.00
31761;BME280;18335;51.486;7.562;2023-05-02T04:13:54;100627.13;;;10.87;100.00
31761;BME280;18335;51.486;7.562;2023-05-02T04:16:21;100626.91;;;10.80;100.00
31761;BME280;18335;51.486;7.562;2023-05-02T04:18:47;100623.91;;;10.91;100.00
31761;BME280;18335;51.486;7.562;2023-05-02T04:21:14;100620.22;;;11.00;100.00
31761;BME280;18335;51.486;7.562;2023-05-02T04:23:42;100632.56;;;11.04;100.00
31761;BME280;18335;51.486;7.562;2023-05-02T04:26:09;100643.72;;;10.93;100.00
31761;BME280;18335;51.486;7.562;2023-05-02T04:28:43;100642.03;;;10.92;100.00
31761;BME280;18335;51.486;7.562;2023-05-02T04:31:14;100646.84;;;10.98;100.00
31761;BME280;18335;51.486;7.562;2023-05-02T04:33:42;100647.78;;;10.89;100.00
31761;BME280;18335;51.486;7.562;2023-05-02T04:36:11;100647.41;;;11.02;100.00
31761;BME280;18335;51.486;7.562;2023-05-02T04:38:41;100654.13;;;11.16;100.00
31761;BME280;18335;51.486;7.562;2023-05-02T04:41:08;100659.16;;;11.02;100.00
31761;BME280;18335;51.486;7.562;2023-05-02T04:43:39;100655.47;;;11.11;100.00
31761;BME280;18335;51.486;7.562;2023-05-02T04:46:06;100654.69;;;11.19;100.00
31761;BME280;18335;51.486;7.562;2023-05-02T04:48:38;100663.34;;;11.15;100.00
31761;BME280;18335;51.486;7.562;2023-05-02T04:51:06;100669.06;;;11.03;100.00
31761;BME280;18335;51.486;7.562;2023-05-02T04:53:33;100679.41;;;11.18;100.00
31761;BME280;18335;51.486;7.562;2023-05-02T04:56:00;100681.44;;;11.16;100.00
31761;BME280;18335;51.486;7.562;2023-05-02T04:58:28;100678.03;;;11.14;100.00
31761;BME280;18335;51.486;7.562;2023-05-02T05:00:59;100677.22;;;11.21;100.00
31761;BME280;18335;51.486;7.562;2023-05-02T05:03:27;100685.69;;;10.92;100.00
31761;BME280;18335;51.486;7.562;2023-05-02T05:05:55;100688.03;;;10.87;100.00
31761;BME280;18335;51.486;7.562;2023-05-02T05:08:23;100688.44;;;10.92;100.00
31761;BME280;18335;51.486;7.562;2023-05-02T05:10:50;100695.13;;;10.98;100.00
31761;BME280;18335;51.486;7.562;2023-05-02T05:13:18;100699.97;;;11.04;100.00
31761;BME280;18335;51.486;7.562;2023-05-02T05:15:47;100700.03;;;10.94;100.00
31761;BME280;18335;51.486;7.562;2023-05-02T05:18:16;100710.47;;;10.81;100.00
31761;BME280;18335;51.486;7.562;2023-05-02T05:20:42;100710.72;;;10.88;100.00
31761;BME280;18335;51.486;7.562;2023-05-02T05:23:11;100718.28;;;10.94;100.00
31761;BME280;18335;51.486;7.562;2023-05-02T05:25:38;100723.38;;;10.89;100.00
31761;BME280;18335;51.486;7.562;2023-05-02T05:28:06;100731.00;;;10.68;100.00
31761;BME280;18335;51.486;7.562;2023-05-02T05:30:35;100732.78;;;10.59;100.00
31761;BME280;18335;51.486;7.562;2023-05-02T05:33:05;100736.38;;;10.60;100.00
31761;BME280;18335;51.486;7.562;2023-05-02T05:35:32;100742.28;;;10.55;100.00
31761;BME280;18335;51.486;7.562;2023-05-02T05:38:00;100748.53;;;10.65;100.00
31761;BME280;18335;51.486;7.562;2023-05-02T05:40:30;100755.19;;;10.80;100.00
31761;BME280;18335;51.486;7.562;2023-05-02T05:42:58;100754.09;;;10.73;100.00
31761;BME280;18335;51.486;7.562;2023-05-02T05:45:31;100757.03;;;10.62;100.00
31761;BME280;18335;51.486;7.562;2023-05-02T05:47:58;100763.75;;;10.68;100.00
31761;BME280;18335;51.486;7.562;2023-05-02T05:50:28;100780.38;;;10.47;100.00
31761;BME280;18335;51.486;7.562;2023-05-02T05:52:55;100791.38;;;10.55;100.00
31761;BME280;18335;51.486;7.562;2023-05-02T05:55:22;100795.47;;;10.51;100.00
31761;BME280;18335;51.486;7.562;2023-05-02T05:57:50;100792.91;;;10.40;100.00
31761;BME280;18335;51.486;7.562;2023-05-02T06:00:18;100793.34;;;10.45;100.00
31761;BME280;18335;51.486;7.562;2023-05-02T06:02:49;100800.31;;;10.57;100.00
31761;BME280;18335;51.486;7.562;2023-05-02T06:05:24;100797.56;;;10.57;100.00
31761;BME280;18335;51.486;7.562;2023-05-02T06:07:51;100801.94;;;10.68;100.00
31761;BME280;18335;51.486;7.562;2023-05-02T06:10:17;100803.72;;;10.59;100.00
31761;BME280;18335;51.486;7.562;2023-05-02T06:12:45;100802.91;;;10.76;100.00
31761;BME280;18335;51.486;7.562;2023-05-02T06:15:14;100802.16;;;10.84;100.00
31761;BME280;18335;51.486;7.562;2023-05-02T06:17:41;100807.31;;;10.87;100.00
31761;BME280;18335;51.486;7.562;2023-05-02T06:20:08;100799.13;;;11.04;100.00
31761;BME280;18335;51.486;7.562;2023-05-02T06:22:35;100802.81;;;11.31;100.00
31761;BME280;18335;51.486;7.562;2023-05-02T06:25:02;100800.38;;;11.28;100.00
31761;BME280;18335;51.486;7.562;2023-05-02T06:27:29;100801.31;;;11.19;100.00
31761;BME280;18335;51.486;7.562;2023-05-02T06:29:56;100808.03;;;11.06;100.00
31761;BME280;18335;51.486;7.562;2023-05-02T06:32:24;100803.25;;;11.08;100.00
31761;BME280;18335;51.486;7.562;2023-05-02T06:34:51;100806.16;;;11.25;100.00
31761;BME280;18335;51.486;7.562;2023-05-02T06:37:17;100816.53;;;11.21;100.00
31761;BME280;18335;51.486;7.562;2023-05-02T06:39:45;100818.50;;;11.29;100.00
31761;BME280;18335;51.486;7.562;2023-05-02T06:42:11;100822.31;;;11.18;100.00
31761;BME280;18335;51.486;7.562;2023-05-02T06:44:38;100830.59;;;11.44;100.00
31761;BME280;18335;51.486;7.562;2023-05-02T06:47:05;100835.88;;;11.10;100.00
31761;BME280;18335;51.486;7.562;2023-05-02T06:49:33;100835.50;;;11.23;100.00
31761;BME280;18335;51.486;7.562;2023-05-02T06:52:00;100846.03;;;11.35;100.00
31761;BME280;18335;51.486;7.562;2023-05-02T06:54:26;100851.09;;;11.48;100.00
31761;BME280;18335;51.486;7.562;2023-05-02T06:56:53;100851.50;;;11.53;100.00
31761;BME280;18335;51.486;7.562;2023-05-02T06:59:20;100857.91;;;11.61;100.00
31761;BME280;18335;51.486;7.562;2023-05-02T07:01:46;100853.69;;;11.32;100.00
31761;BME280;18335;51.486;7.562;2023-05-02T07:04:13;100857.19;;;11.42;100.00
31761;BME280;18335;51.486;7.562;2023-05-02T07:06:41;100861.34;;;11.28;100.00
31761;BME280;18335;51.486;7.562;2023-05-02T07:09:08;100872.50;;;11.35;100.00
31761;BME280;18335;51.486;7.562;2023-05-02T07:11:35;100875.75;;;11.21;100.00
31761;BME280;18335;51.486;7.562;2023-05-02T07:14:01;100880.47;;;11.46;100.00
31761;BME280;18335;51.486;7.562;2023-05-02T07:16:28;100873.66;;;11.50;100.00
31761;BME280;18335;51.486;7.562;2023-05-02T07:18:55;100884.28;;;11.53;100.00
31761;BME280;18335;51.486;7.562;2023-05-02T07:21:22;100886.88;;;11.37;100.00
31761;BME280;18335;51.486;7.562;2023-05-02T07:23:50;100891.66;;;11.52;100.00
31761;BME280;18335;51.486;7.562;2023-05-02T07:26:17;100894.09;;;11.73;100.00
31761;BME280;18335;51.486;7.562;2023-05-02T07:28:44;100892.16;;;11.56;100.00
31761;BME280;18335;51.486;7.562;2023-05-02T07:31:11;100899.00;;;11.70;100.00
31761;BME280;18335;51.486;7.562;2023-05-02T07:33:37;100899.97;;;11.68;100.00
31761;BME280;18335;51.486;7.562;2023-05-02T07:36:04;100896.94;;;11.54;100.00
31761;BME280;18335;51.486;7.562;2023-05-02T07:38:31;100906.69;;;11.56;100.00
31761;BME280;18335;51.486;7.562;2023-05-02T07:40:59;100896.09;;;11.71;100.00
31761;BME280;18335;51.486;7.562;2023-05-02T07:43:26;100906.22;;;11.71;100.00
31761;BME280;18335;51.486;7.562;2023-05-02T07:45:53;100907.88;;;11.54;100.00
31761;BME280;18335;51.486;7.562;2023-05-02T07:48:20;100909.19;;;11.50;100.00
31761;BME280;18335;51.486;7.562;2023-05-02T07:50:47;100912.47;;;11.36;100.00
31761;BME280;18335;51.486;7.562;2023-05-02T07:53:14;100915.13;;;11.28;100.00
31761;BME280;18335;51.486;7.562;2023-05-02T07:55:41;100930.22;;;11.49;100.00
31761;BME280;18335;51.486;7.562;2023-05-02T07:58:09;100923.28;;;11.55;100.00
31761;BME280;18335;51.486;7.562;2023-05-02T08:00:36;100934.75;;;11.41;100.00
31761;BME280;18335;51.486;7.562;2023-05-02T08:03:03;100945.75;;;11.49;100.00
31761;BME280;18335;51.486;7.562;2023-05-02T08:05:31;100953.63;;;10.70;100.00
31761;BME280;18335;51.486;7.562;2023-05-02T08:07:58;100968.84;;;10.17;100.00
31761;BME280;18335;51.486;7.562;2023-05-02T08:10:26;100984.19;;;10.18;100.00
31761;BME280;18335;51.486;7.562;2023-05-02T08:12:53;100985.31;;;9.86;100.00
31761;BME280;18335;51.486;7.562;2023-05-02T08:15:21;100991.34;;;9.61;100.00
31761;BME280;18335;51.486;7.562;2023-05-02T08:17:48;100997.88;;;9.00;100.00
31761;BME280;18335;51.486;7.562;2023-05-02T08:20:14;100998.03;;;8.98;100.00
31761;BME280;18335;51.486;7.562;2023-05-02T08:22:41;101015.19;;;8.89;100.00
31761;BME280;18335;51.486;7.562;2023-05-02T08:25:08;101024.59;;;8.85;100.00
31761;BME280;18335;51.486;7.562;2023-05-02T08:27:35;101019.25;;;8.74;100.00
31761;BME280;18335;51.486;7.562;2023-05-02T08:30:02;101019.69;;;8.79;100.00
31761;BME280;18335;51.486;7.562;2023-05-02T08:32:32;101029.56;;;8.50;100.00
31761;BME280;18335;51.486;7.562;2023-05-02T08:34:58;101035.16;;;8.78;100.00
31761;BME280;18335;51.486;7.562;2023-05-02T08:37:25;101042.97;;;8.93;100.00
31761;BME280;18335;51.486;7.562;2023-05-02T08:39:52;101039.13;;;9.25;100.00
31761;BME280;18335;51.486;7.562;2023-05-02T08:42:20;101046.22;;;9.07;100.00
31761;BME280;18335;51.486;7.562;2023-05-02T08:44:47;101052.47;;;8.98;100.00
31761;BME280;18335;51.486;7.562;2023-05-02T08:47:14;101053.16;;;8.70;100.00
31761;BME280;18335;51.486;7.562;2023-05-02T08:49:43;101057.09;;;9.07;100.00
31761;BME280;18335;51.486;7.562;2023-05-02T08:52:11;101055.19;;;8.98;100.00
31761;BME280;18335;51.486;7.562;2023-05-02T08:54:39;101061.19;;;9.22;100.00
31761;BME280;18335;51.486;7.562;2023-05-02T08:57:07;101063.59;;;9.65;100.00
31761;BME280;18335;51.486;7.562;2023-05-02T08:59:33;101064.34;;;9.67;100.00
31761;BME280;18335;51.486;7.562;2023-05-02T09:02:11;101069.94;;;9.75;100.00
31761;BME280;18335;51.486;7.562;2023-05-02T09:04:44;101066.78;;;9.80;100.00
31761;BME280;18335;51.486;7.562;2023-05-02T09:07:16;101069.78;;;9.67;100.00
31761;BME280;18335;51.486;7.562;2023-05-02T09:09:43;101081.38;;;9.60;100.00
31761;BME280;18335;51.486;7.562;2023-05-02T09:12:09;101084.59;;;9.44;100.00
31761;BME280;18335;51.486;7.562;2023-05-02T09:14:36;101090.19;;;9.92;100.00
31761;BME280;18335;51.486;7.562;2023-05-02T09:17:03;101083.84;;;9.72;100.00
31761;BME280;18335;51.486;7.562;2023-05-02T09:19:30;101095.13;;;9.58;100.00
31761;BME280;18335;51.486;7.562;2023-05-02T09:22:00;101091.47;;;9.78;100.00
31761;BME280;18335;51.486;7.562;2023-05-02T09:24:27;101094.03;;;9.80;100.00
31761;BME280;18335;51.486;7.562;2023-05-02T09:26:56;101098.38;;;9.82;100.00
31761;BME280;18335;51.486;7.562;2023-05-02T09:29:23;101102.53;;;9.86;100.00
31761;BME280;18335;51.486;7.562;2023-05-02T09:31:50;101105.88;;;9.60;100.00
31761;BME280;18335;51.486;7.562;2023-05-02T09:34:17;101106.38;;;9.34;100.00
31761;BME280;18335;51.486;7.562;2023-05-02T09:36:45;101111.41;;;9.39;100.00
31761;BME280;18335;51.486;7.562;2023-05-02T09:39:14;101119.78;;;9.17;100.00
31761;BME280;18335;51.486;7.562;2023-05-02T09:41:43;101106.78;;;9.30;100.00
31761;BME280;18335;51.486;7.562;2023-05-02T09:44:12;101123.06;;;9.51;100.00
31761;BME280;18335;51.486;7.562;2023-05-02T09:46:39;101111.00;;;9.43;100.00
31761;BME280;18335;51.486;7.562;2023-05-02T09:49:07;101118.38;;;9.62;100.00
31761;BME280;18335;51.486;7.562;2023-05-02T09:51:34;101122.78;;;9.93;100.00
31761;BME280;18335;51.486;7.562;2023-05-02T09:54:02;101129.66;;;9.97;100.00
31761;BME280;18335;51.486;7.562;2023-05-02T09:56:30;101128.19;;;10.33;100.00
31761;BME280;18335;51.486;7.562;2023-05-02T09:59:11;101143.41;;;10.36;100.00
31761;BME280;18335;51.486;7.562;2023-05-02T10:01:40;101135.22;;;10.36;100.00
31761;BME280;18335;51.486;7.562;2023-05-02T10:04:11;101138.97;;;10.54;100.00
31761;BME280;18335;51.486;7.562;2023-05-02T10:06:41;101139.53;;;10.77;100.00
31761;BME280;18335;51.486;7.562;2023-05-02T10:09:09;101141.84;;;10.62;100.00
31761;BME280;18335;51.486;7.562;2023-05-02T10:11:38;101146.69;;;10.39;100.00
31761;BME280;18335;51.486;7.562;2023-05-02T10:14:08;101151.56;;;10.45;100.00
31761;BME280;18335;51.486;7.562;2023-05-02T10:16:38;101150.41;;;10.29;100.00
31761;BME280;18335;51.486;7.562;2023-05-02T10:19:08;101153.56;;;10.15;100.00
31761;BME280;18335;51.486;7.562;2023-05-02T10:21:35;101155.78;;;10.10;100.00
31761;BME280;18335;51.486;7.562;2023-05-02T10:24:03;101162.06;;;9.81;100.00
31761;BME280;18335;51.486;7.562;2023-05-02T10:26:33;101157.16;;;9.75;100.00
31761;BME280;18335;51.486;7.562;2023-05-02T10:29:01;101159.63;;;9.97;100.00
31761;BME280;18335;51.486;7.562;2023-05-02T10:31:32;101154.19;;;9.88;100.00
31761;BME280;18335;51.486;7.562;2023-05-02T10:34:00;101148.91;;;10.06;100.00
31761;BME280;18335;51.486;7.562;2023-05-02T10:36:30;101158.94;;;9.95;100.00
31761;BME280;18335;51.486;7.562;2023-05-02T10:38:58;101157.59;;;10.20;100.00
31761;BME280;18335;51.486;7.562;2023-05-02T10:41:26;101167.84;;;10.07;100.00
31761;BME280;18335;51.486;7.562;2023-05-02T10:43:54;101167.25;;;10.03;100.00
31761;BME280;18335;51.486;7.562;2023-05-02T10:46:31;101164.84;;;10.10;100.00
31761;BME280;18335;51.486;7.562;2023-05-02T10:49:02;101162.97;;;9.91;100.00
31761;BME280;18335;51.486;7.562;2023-05-02T10:51:30;101151.28;;;10.29;100.00
31761;BME280;18335;51.486;7.562;2023-05-02T10:54:18;101167.69;;;10.39;100.00
31761;BME280;18335;51.486;7.562;2023-05-02T10:57:05;101168.81;;;10.46;100.00
31761;BME280;18335;51.486;7.562;2023-05-02T10:59:33;101161.09;;;10.51;100.00
31761;BME280;18335;51.486;7.562;2023-05-02T11:02:01;101167.66;;;10.58;100.00
31761;BME280;18335;51.486;7.562;2023-05-02T11:04:57;101170.56;;;10.66;100.00
31761;BME280;18335;51.486;7.562;2023-05-02T11:07:24;101169.25;;;10.70;100.00
31761;BME280;18335;51.486;7.562;2023-05-02T11:09:51;101164.50;;;10.43;100.00
31761;BME280;18335;51.486;7.562;2023-05-02T11:12:43;101162.66;;;10.44;100.00
31761;BME280;18335;51.486;7.562;2023-05-02T11:15:11;101165.78;;;10.39;100.00
31761;BME280;18335;51.486;7.562;2023-05-02T11:17:58;101173.41;;;10.55;100.00
31761;BME280;18335;51.486;7.562;2023-05-02T11:20:26;101173.41;;;10.36;100.00
31761;BME280;18335;51.486;7.562;2023-05-02T11:22:54;101165.56;;;10.02;100.00
31761;BME280;18335;51.486;7.562;2023-05-02T11:25:33;101175.88;;;9.99;100.00
31761;BME280;18335;51.486;7.562;2023-05-02T11:28:01;101177.88;;;10.07;100.00
31761;BME280;18335;51.486;7.562;2023-05-02T11:30:39;101172.72;;;10.03;100.00
31761;BME280;18335;51.486;7.562;2023-05-02T11:33:14;101173.25;;;10.28;100.00
31761;BME280;18335;51.486;7.562;2023-05-02T11:35:46;101179.31;;;10.41;100.00
31761;BME280;18335;51.486;7.562;2023-05-02T11:38:15;101178.88;;;10.65;100.00
31761;BME280;18335;51.486;7.562;2023-05-02T11:40:56;101177.00;;;10.94;100.00
31761;BME280;18335;51.486;7.562;2023-05-02T11:43:25;101172.28;;;10.96;100.00
31761;BME280;18335;51.486;7.562;2023-05-02T11:45:52;101173.81;;;11.18;100.00
31761;BME280;18335;51.486;7.562;2023-05-02T11:48:23;101173.94;;;11.26;100.00
31761;BME280;18335;51.486;7.562;2023-05-02T11:50:53;101185.34;;;11.58;100.00
31761;BME280;18335;51.486;7.562;2023-05-02T11:53:22;101177.88;;;11.50;100.00
31761;BME280;18335;51.486;7.562;2023-05-02T11:55:50;101176.41;;;11.65;100.00
31761;BME280;18335;51.486;7.562;2023-05-02T11:58:20;101173.69;;;12.02;100.00
31761;BME280;18335;51.486;7.562;2023-05-02T12:00:48;101163.28;;;12.06;100.00
31761;BME280;18335;51.486;7.562;2023-05-02T12:03:21;101169.16;;;12.56;100.00
31761;BME280;18335;51.486;7.562;2023-05-02T12:05:48;101178.59;;;12.79;100.00
31761;BME280;18335;51.486;7.562;2023-05-02T12:08:23;101163.19;;;12.96;100.00
31761;BME280;18335;51.486;7.562;2023-05-02T12:10:52;101164.88;;;13.14;100.00
31761;BME280;18335;51.486;7.562;2023-05-02T12:13:20;101176.09;;;13.03;100.00
31761;BME280;18335;51.486;7.562;2023-05-02T12:15:49;101178.53;;;12.89;100.00
31761;BME280;18335;51.486;7.562;2023-05-02T12:18:16;101173.38;;;12.68;100.00
31761;BME280;18335;51.486;7.562;2023-05-02T12:20:45;101176.91;;;12.78;100.00
31761;BME280;18335;51.486;7.562;2023-05-02T12:23:13;101177.66;;;12.88;100.00
31761;BME280;18335;51.486;7.562;2023-05-02T12:25:40;101180.16;;;12.82;100.00
31761;BME280;18335;51.486;7.562;2023-05-02T12:28:08;101175.72;;;12.63;100.00
31761;BME280;18335;51.486;7.562;2023-05-02T12:30:37;101190.47;;;12.35;100.00
31761;BME280;18335;51.486;7.562;2023-05-02T12:33:05;101186.22;;;12.23;100.00
31761;BME280;18335;51.486;7.562;2023-05-02T12:35:33;101183.03;;;12.27;100.00
31761;BME280;18335;51.486;7.562;2023-05-02T12:38:10;101180.34;;;12.45;100.00
31761;BME280;18335;51.486;7.562;2023-05-02T12:40:38;101180.97;;;12.74;100.00
31761;BME280;18335;51.486;7.562;2023-05-02T12:43:05;101185.66;;;12.64;100.00
31761;BME280;18335;51.486;7.562;2023-05-02T12:45:35;101185.44;;;13.10;100.00
31761;BME280;18335;51.486;7.562;2023-05-02T12:48:17;101189.06;;;13.37;100.00
31761;BME280;18335;51.486;7.562;2023-05-02T12:50:44;101180.31;;;13.15;100.00